sensor_id;sensor_type;location;lat;lon;timestamp;P1;durP1;ratioP1;P2;durP2;ratioP2
25057;SDS011;13057;50.978;11.034;2022-07-29T00:00:53;5.95;;;1.48;;
25057;SDS011;13057;50.978;11.034;2022-07-29T00:03:19;3.05;;;1.70;;
25057;SDS011;13057;50.978;11.034;2022-07-29T00:05:45;5.78;;;1.60;;
25057;SDS011;13057;50.978;11.034;2022-07-29T00:08:11;3.60;;;1.42;;
25057;SDS011;13057;50.978;11.034;2022-07-29T00:10:37;3.70;;;1.70;;
25057;SDS011;13057;50.978;11.034;2022-07-29T00:13:03;5.40;;;1.63;;
25057;SDS011;13057;50.978;11.034;2022-07-29T00:15:29;4.13;;;1.55;;
25057;SDS011;13057;50.978;11.034;2022-07-29T00:17:55;2.20;;;1.25;;
25057;SDS011;13057;50.978;11.034;2022-07-29T00:20:21;3.35;;;1.50;;
25057;SDS011;13057;50.978;11.034;2022-07-29T00:22:50;8.48;;;1.70;;
25057;SDS011;13057;50.978;11.034;2022-07-29T00:25:16;3.22;;;1.58;;
25057;SDS011;13057;50.978;11.034;2022-07-29T00:27:42;5.30;;;1.60;;
25057;SDS011;13057;50.978;11.034;2022-07-29T00:30:07;3.63;;;1.60;;
25057;SDS011;13057;50.978;11.034;2022-07-29T00:32:34;5.15;;;1.55;;
25057;SDS011;13057;50.978;11.034;2022-07-29T00:35:00;4.72;;;1.65;;
25057;SDS011;13057;50.978;11.034;2022-07-29T00:37:46;5.50;;;1.30;;
25057;SDS011;13057;50.978;11.034;2022-07-29T00:40:11;4.40;;;1.25;;
25057;SDS011;13057;50.978;11.034;2022-07-29T00:42:41;9.73;;;1.80;;
25057;SDS011;13057;50.978;11.034;2022-07-29T00:45:09;6.45;;;1.50;;
25057;SDS011;13057;50.978;11.034;2022-07-29T00:47:34;3.63;;;1.27;;
25057;SDS011;13057;50.978;11.034;2022-07-29T00:50:00;4.82;;;1.55;;
25057;SDS011;13057;50.978;11.034;2022-07-29T00:52:26;2.58;;;1.30;;
25057;SDS011;13057;50.978;11.034;2022-07-29T00:54:52;3.80;;;1.73;;
25057;SDS011;13057;50.978;11.034;2022-07-29T00:57:18;4.93;;;1.85;;
25057;SDS011;13057;50.978;11.034;2022-07-29T00:59:45;4.57;;;1.65;;
25057;SDS011;13057;50.978;11.034;2022-07-29T01:02:11;2.85;;;1.40;;
25057;SDS011;13057;50.978;11.034;2022-07-29T01:04:36;5.90;;;1.40;;
25057;SDS011;13057;50.978;11.034;2022-07-29T01:07:02;4.68;;;1.70;;
25057;SDS011;13057;50.978;11.034;2022-07-29T01:09:30;3.60;;;1.75;;
25057;SDS011;13057;50.978;11.034;2022-07-29T01:11:57;4.53;;;1.40;;
25057;SDS011;13057;50.978;11.034;2022-07-29T01:14:24;4.22;;;1.30;;
25057;SDS011;13057;50.978;11.034;2022-07-29T01:16:52;6.10;;;1.50;;
25057;SDS011;13057;50.978;11.034;2022-07-29T01:22:24;4.75;;;1.55;;
25057;SDS011;13057;50.978;11.034;2022-07-29T01:25:11;7.70;;;1.65;;
25057;SDS011;13057;50.978;11.034;2022-07-29T01:28:16;2.67;;;1.30;;
25057;SDS011;13057;50.978;11.034;2022-07-29T01:30:52;3.78;;;1.30;;
25057;SDS011;13057;50.978;11.034;2022-07-29T01:33:20;3.33;;;1.50;;
25057;SDS011;13057;50.978;11.034;2022-07-29T01:36:01;5.03;;;1.27;;
25057;SDS011;13057;50.978;11.034;2022-07-29T01:38:35;7.82;;;1.40;;
25057;SDS011;13057;50.978;11.034;2022-07-29T01:41:05;3.75;;;1.23;;
25057;SDS011;13057;50.978;11.034;2022-07-29T01:43:44;4.93;;;1.42;;
25057;SDS011;13057;50.978;11.034;2022-07-29T01:46:17;6.07;;;1.80;;
25057;SDS011;13057;50.978;11.034;2022-07-29T01:48:49;2.60;;;1.35;;
25057;SDS011;13057;50.978;11.034;2022-07-29T01:53:50;5.30;;;1.77;;
25057;SDS011;13057;50.978;11.034;2022-07-29T01:56:24;4.68;;;1.73;;
25057;SDS011;13057;50.978;11.034;2022-07-29T01:58:56;5.65;;;1.33;;
25057;SDS011;13057;50.978;11.034;2022-07-29T02:01:23;7.03;;;2.45;;
25057;SDS011;13057;50.978;11.034;2022-07-29T02:03:51;3.60;;;1.70;;
25057;SDS011;13057;50.978;11.034;2022-07-29T02:06:21;8.18;;;1.85;;
25057;SDS011;13057;50.978;11.034;2022-07-29T02:08:49;3.58;;;1.60;;
25057;SDS011;13057;50.978;11.034;2022-07-29T02:11:17;5.22;;;1.60;;
25057;SDS011;13057;50.978;11.034;2022-07-29T02:13:43;6.57;;;1.70;;
25057;SDS011;13057;50.978;11.034;2022-07-29T02:16:10;9.10;;;1.73;;
25057;SDS011;13057;50.978;11.034;2022-07-29T02:18:39;4.28;;;1.50;;
25057;SDS011;13057;50.978;11.034;2022-07-29T02:21:08;3.05;;;1.50;;
25057;SDS011;13057;50.978;11.034;2022-07-29T02:23:35;4.60;;;1.60;;
25057;SDS011;13057;50.978;11.034;2022-07-29T02:26:04;6.65;;;1.88;;
25057;SDS011;13057;50.978;11.034;2022-07-29T02:28:31;10.13;;;1.58;;
25057;SDS011;13057;50.978;11.034;2022-07-29T02:31:00;8.98;;;1.95;;
25057;SDS011;13057;50.978;11.034;2022-07-29T02:33:27;10.05;;;1.70;;
25057;SDS011;13057;50.978;11.034;2022-07-29T02:35:55;5.43;;;3.50;;
25057;SDS011;13057;50.978;11.034;2022-07-29T02:38:23;7.88;;;1.67;;
25057;SDS011;13057;50.978;11.034;2022-07-29T02:41:08;3.95;;;1.88;;
25057;SDS011;13057;50.978;11.034;2022-07-29T02:43:38;5.15;;;1.50;;
25057;SDS011;13057;50.978;11.034;2022-07-29T02:46:06;3.63;;;1.67;;
25057;SDS011;13057;50.978;11.034;2022-07-29T02:48:38;5.32;;;1.77;;
25057;SDS011;13057;50.978;11.034;2022-07-29T02:51:12;2.90;;;1.45;;
25057;SDS011;13057;50.978;11.034;2022-07-29T02:53:44;3.22;;;1.48;;
25057;SDS011;13057;50.978;11.034;2022-07-29T02:56:14;4.18;;;1.83;;
25057;SDS011;13057;50.978;11.034;2022-07-29T02:58:49;7.28;;;1.60;;
25057;SDS011;13057;50.978;11.034;2022-07-29T03:01:21;6.25;;;1.48;;
25057;SDS011;13057;50.978;11.034;2022-07-29T03:03:49;3.30;;;1.58;;
25057;SDS011;13057;50.978;11.034;2022-07-29T03:06:18;4.25;;;1.90;;
25057;SDS011;13057;50.978;11.034;2022-07-29T03:08:47;4.68;;;1.67;;
25057;SDS011;13057;50.978;11.034;2022-07-29T03:11:14;6.88;;;1.77;;
25057;SDS011;13057;50.978;11.034;2022-07-29T03:13:41;3.10;;;1.40;;
25057;SDS011;13057;50.978;11.034;2022-07-29T03:16:07;3.47;;;1.42;;
25057;SDS011;13057;50.978;11.034;2022-07-29T03:18:35;5.00;;;1.50;;
25057;SDS011;13057;50.978;11.034;2022-07-29T03:21:02;4.60;;;1.60;;
25057;SDS011;13057;50.978;11.034;2022-07-29T03:23:28;8.23;;;1.50;;
25057;SDS011;13057;50.978;11.034;2022-07-29T03:25:55;3.97;;;1.45;;
25057;SDS011;13057;50.978;11.034;2022-07-29T03:28:21;2.50;;;1.40;;
25057;SDS011;13057;50.978;11.034;2022-07-29T03:30:48;5.03;;;1.50;;
25057;SDS011;13057;50.978;11.034;2022-07-29T03:33:14;7.57;;;1.52;;
25057;SDS011;13057;50.978;11.034;2022-07-29T03:35:40;10.13;;;1.60;;
25057;SDS011;13057;50.978;11.034;2022-07-29T03:38:06;4.53;;;1.42;;
25057;SDS011;13057;50.978;11.034;2022-07-29T03:40:33;7.85;;;1.70;;
25057;SDS011;13057;50.978;11.034;2022-07-29T03:43:05;9.73;;;1.92;;
25057;SDS011;13057;50.978;11.034;2022-07-29T03:45:34;5.07;;;1.70;;
25057;SDS011;13057;50.978;11.034;2022-07-29T03:48:03;4.88;;;1.52;;
25057;SDS011;13057;50.978;11.034;2022-07-29T03:50:33;6.88;;;1.48;;
25057;SDS011;13057;50.978;11.034;2022-07-29T03:53:00;4.72;;;1.50;;
25057;SDS011;13057;50.978;11.034;2022-07-29T03:55:28;6.80;;;1.50;;
25057;SDS011;13057;50.978;11.034;2022-07-29T03:57:57;5.22;;;1.90;;
25057;SDS011;13057;50.978;11.034;2022-07-29T04:00:24;4.45;;;1.73;;
25057;SDS011;13057;50.978;11.034;2022-07-29T04:02:52;4.18;;;1.90;;
25057;SDS011;13057;50.978;11.034;2022-07-29T04:05:18;5.38;;;1.67;;
25057;SDS011;13057;50.978;11.034;2022-07-29T04:07:44;8.70;;;1.60;;
25057;SDS011;13057;50.978;11.034;2022-07-29T04:10:11;3.72;;;1.55;;
25057;SDS011;13057;50.978;11.034;2022-07-29T04:12:37;3.70;;;1.63;;
25057;SDS011;13057;50.978;11.034;2022-07-29T04:15:03;8.57;;;1.77;;
25057;SDS011;13057;50.978;11.034;2022-07-29T04:17:30;4.75;;;1.40;;
25057;SDS011;13057;50.978;11.034;2022-07-29T04:19:55;3.90;;;1.60;;
25057;SDS011;13057;50.978;11.034;2022-07-29T04:22:22;7.60;;;1.90;;
25057;SDS011;13057;50.978;11.034;2022-07-29T04:24:47;3.90;;;1.35;;
25057;SDS011;13057;50.978;11.034;2022-07-29T04:27:13;6.07;;;2.00;;
25057;SDS011;13057;50.978;11.034;2022-07-29T04:29:39;5.47;;;1.73;;
25057;SDS011;13057;50.978;11.034;2022-07-29T04:32:05;3.38;;;1.50;;
25057;SDS011;13057;50.978;11.034;2022-07-29T04:34:31;7.53;;;1.88;;
25057;SDS011;13057;50.978;11.034;2022-07-29T04:36:57;8.32;;;1.63;;
25057;SDS011;13057;50.978;11.034;2022-07-29T04:39:23;4.43;;;1.50;;
25057;SDS011;13057;50.978;11.034;2022-07-29T04:41:49;4.00;;;1.67;;
25057;SDS011;13057;50.978;11.034;2022-07-29T04:44:15;3.88;;;1.35;;
25057;SDS011;13057;50.978;11.034;2022-07-29T04:46:41;4.38;;;1.60;;
25057;SDS011;13057;50.978;11.034;2022-07-29T04:49:07;1.73;;;1.30;;
25057;SDS011;13057;50.978;11.034;2022-07-29T04:51:33;7.10;;;1.80;;
25057;SDS011;13057;50.978;11.034;2022-07-29T04:53:59;2.75;;;1.40;;
25057;SDS011;13057;50.978;11.034;2022-07-29T04:56:25;2.47;;;1.48;;
25057;SDS011;13057;50.978;11.034;2022-07-29T04:58:52;3.05;;;1.60;;
25057;SDS011;13057;50.978;11.034;2022-07-29T05:01:18;3.20;;;1.60;;
25057;SDS011;13057;50.978;11.034;2022-07-29T05:03:44;4.25;;;1.60;;
25057;SDS011;13057;50.978;11.034;2022-07-29T05:06:10;2.60;;;1.42;;
25057;SDS011;13057;50.978;11.034;2022-07-29T05:08:36;9.65;;;1.73;;
25057;SDS011;13057;50.978;11.034;2022-07-29T05:11:02;4.43;;;1.58;;
25057;SDS011;13057;50.978;11.034;2022-07-29T05:13:28;13.82;;;1.80;;
25057;SDS011;13057;50.978;11.034;2022-07-29T05:15:55;8.00;;;1.58;;
25057;SDS011;13057;50.978;11.034;2022-07-29T05:18:24;5.93;;;1.90;;
25057;SDS011;13057;50.978;11.034;2022-07-29T05:20:50;7.63;;;1.80;;
25057;SDS011;13057;50.978;11.034;2022-07-29T05:23:16;5.40;;;2.30;;
25057;SDS011;13057;50.978;11.034;2022-07-29T05:25:42;3.58;;;1.67;;
25057;SDS011;13057;50.978;11.034;2022-07-29T05:28:08;2.92;;;1.80;;
25057;SDS011;13057;50.978;11.034;2022-07-29T05:30:34;6.18;;;2.08;;
25057;SDS011;13057;50.978;11.034;2022-07-29T05:33:00;8.77;;;4.13;;
25057;SDS011;13057;50.978;11.034;2022-07-29T05:35:26;3.72;;;1.42;;
25057;SDS011;13057;50.978;11.034;2022-07-29T05:37:55;2.70;;;1.60;;
25057;SDS011;13057;50.978;11.034;2022-07-29T05:40:21;3.53;;;1.50;;
25057;SDS011;13057;50.978;11.034;2022-07-29T05:42:46;5.78;;;1.63;;
25057;SDS011;13057;50.978;11.034;2022-07-29T05:45:12;2.45;;;1.50;;
25057;SDS011;13057;50.978;11.034;2022-07-29T05:47:38;5.13;;;1.60;;
25057;SDS011;13057;50.978;11.034;2022-07-29T05:50:04;3.30;;;1.70;;
25057;SDS011;13057;50.978;11.034;2022-07-29T06:02:36;7.57;;;1.83;;
25057;SDS011;13057;50.978;11.034;2022-07-29T06:05:03;5.70;;;2.00;;
25057;SDS011;13057;50.978;11.034;2022-07-29T06:07:29;6.30;;;1.75;;
25057;SDS011;13057;50.978;11.034;2022-07-29T06:09:55;4.68;;;1.60;;
25057;SDS011;13057;50.978;11.034;2022-07-29T06:12:21;4.03;;;1.73;;
25057;SDS011;13057;50.978;11.034;2022-07-29T06:14:47;4.63;;;1.75;;
25057;SDS011;13057;50.978;11.034;2022-07-29T06:17:13;6.55;;;1.65;;
25057;SDS011;13057;50.978;11.034;2022-07-29T06:19:40;6.60;;;1.75;;
25057;SDS011;13057;50.978;11.034;2022-07-29T06:22:06;3.97;;;1.50;;
25057;SDS011;13057;50.978;11.034;2022-07-29T06:24:32;6.63;;;1.50;;
25057;SDS011;13057;50.978;11.034;2022-07-29T06:26:58;5.45;;;2.05;;
25057;SDS011;13057;50.978;11.034;2022-07-29T06:29:24;8.32;;;1.60;;
25057;SDS011;13057;50.978;11.034;2022-07-29T06:31:50;8.50;;;1.80;;
25057;SDS011;13057;50.978;11.034;2022-07-29T06:34:16;3.78;;;1.58;;
25057;SDS011;13057;50.978;11.034;2022-07-29T06:36:41;7.95;;;1.40;;
25057;SDS011;13057;50.978;11.034;2022-07-29T06:39:07;4.43;;;1.60;;
25057;SDS011;13057;50.978;11.034;2022-07-29T06:41:34;4.43;;;1.55;;
25057;SDS011;13057;50.978;11.034;2022-07-29T06:44:00;3.90;;;1.40;;
25057;SDS011;13057;50.978;11.034;2022-07-29T06:46:26;4.57;;;1.50;;
25057;SDS011;13057;50.978;11.034;2022-07-29T06:48:53;3.42;;;1.45;;
25057;SDS011;13057;50.978;11.034;2022-07-29T06:51:18;4.28;;;1.63;;
25057;SDS011;13057;50.978;11.034;2022-07-29T06:53:45;5.13;;;1.63;;
25057;SDS011;13057;50.978;11.034;2022-07-29T06:56:10;5.68;;;1.83;;
25057;SDS011;13057;50.978;11.034;2022-07-29T06:58:39;6.25;;;1.75;;
25057;SDS011;13057;50.978;11.034;2022-07-29T07:01:05;6.00;;;1.55;;
25057;SDS011;13057;50.978;11.034;2022-07-29T07:03:32;2.92;;;1.70;;
25057;SDS011;13057;50.978;11.034;2022-07-29T07:05:58;7.28;;;1.40;;
25057;SDS011;13057;50.978;11.034;2022-07-29T07:08:24;3.75;;;1.52;;
25057;SDS011;13057;50.978;11.034;2022-07-29T07:10:51;4.05;;;1.40;;
25057;SDS011;13057;50.978;11.034;2022-07-29T07:13:17;4.65;;;1.58;;
25057;SDS011;13057;50.978;11.034;2022-07-29T07:15:44;5.07;;;1.95;;
25057;SDS011;13057;50.978;11.034;2022-07-29T07:18:10;4.38;;;1.67;;
25057;SDS011;13057;50.978;11.034;2022-07-29T07:20:36;17.63;;;1.80;;
25057;SDS011;13057;50.978;11.034;2022-07-29T07:23:03;4.65;;;1.83;;
25057;SDS011;13057;50.978;11.034;2022-07-29T07:25:29;4.93;;;1.80;;
25057;SDS011;13057;50.978;11.034;2022-07-29T07:27:55;5.57;;;1.67;;
25057;SDS011;13057;50.978;11.034;2022-07-29T07:30:21;4.85;;;1.90;;
25057;SDS011;13057;50.978;11.034;2022-07-29T07:32:47;7.93;;;1.70;;
25057;SDS011;13057;50.978;11.034;2022-07-29T07:35:13;5.72;;;1.55;;
25057;SDS011;13057;50.978;11.034;2022-07-29T07:37:39;6.32;;;1.75;;
25057;SDS011;13057;50.978;11.034;2022-07-29T07:40:05;2.78;;;1.83;;
25057;SDS011;13057;50.978;11.034;2022-07-29T07:42:32;6.38;;;1.92;;
25057;SDS011;13057;50.978;11.034;2022-07-29T07:44:58;4.15;;;1.80;;
25057;SDS011;13057;50.978;11.034;2022-07-29T07:47:24;2.40;;;1.55;;
25057;SDS011;13057;50.978;11.034;2022-07-29T07:49:51;8.60;;;1.90;;
25057;SDS011;13057;50.978;11.034;2022-07-29T07:52:19;5.72;;;2.08;;
25057;SDS011;13057;50.978;11.034;2022-07-29T07:54:46;6.07;;;1.83;;
25057;SDS011;13057;50.978;11.034;2022-07-29T07:57:12;3.95;;;1.50;;
25057;SDS011;13057;50.978;11.034;2022-07-29T07:59:38;5.60;;;1.60;;
25057;SDS011;13057;50.978;11.034;2022-07-29T08:02:04;4.75;;;1.60;;
25057;SDS011;13057;50.978;11.034;2022-07-29T08:04:31;14.73;;;6.53;;
25057;SDS011;13057;50.978;11.034;2022-07-29T08:06:57;7.63;;;2.28;;
25057;SDS011;13057;50.978;11.034;2022-07-29T08:09:24;6.15;;;1.85;;
25057;SDS011;13057;50.978;11.034;2022-07-29T08:11:51;2.35;;;1.80;;
25057;SDS011;13057;50.978;11.034;2022-07-29T08:14:18;7.60;;;2.25;;
25057;SDS011;13057;50.978;11.034;2022-07-29T08:16:46;18.65;;;2.00;;
25057;SDS011;13057;50.978;11.034;2022-07-29T08:19:15;6.07;;;1.65;;
25057;SDS011;13057;50.978;11.034;2022-07-29T08:21:42;7.63;;;1.58;;
25057;SDS011;13057;50.978;11.034;2022-07-29T08:24:08;6.78;;;1.75;;
25057;SDS011;13057;50.978;11.034;2022-07-29T08:26:45;6.88;;;1.60;;
25057;SDS011;13057;50.978;11.034;2022-07-29T08:29:11;6.70;;;1.90;;
25057;SDS011;13057;50.978;11.034;2022-07-29T08:31:37;4.68;;;1.85;;
25057;SDS011;13057;50.978;11.034;2022-07-29T08:34:04;7.53;;;2.22;;
25057;SDS011;13057;50.978;11.034;2022-07-29T08:36:31;10.32;;;2.03;;
25057;SDS011;13057;50.978;11.034;2022-07-29T08:38:58;6.18;;;2.17;;
25057;SDS011;13057;50.978;11.034;2022-07-29T08:41:25;14.13;;;2.47;;
25057;SDS011;13057;50.978;11.034;2022-07-29T08:43:52;4.57;;;2.20;;
25057;SDS011;13057;50.978;11.034;2022-07-29T08:46:19;6.70;;;2.40;;
25057;SDS011;13057;50.978;11.034;2022-07-29T08:48:45;4.82;;;2.45;;
25057;SDS011;13057;50.978;11.034;2022-07-29T08:51:14;6.10;;;2.08;;
25057;SDS011;13057;50.978;11.034;2022-07-29T08:53:42;9.57;;;2.33;;
25057;SDS011;13057;50.978;11.034;2022-07-29T08:56:12;6.85;;;1.77;;
25057;SDS011;13057;50.978;11.034;2022-07-29T08:58:39;7.32;;;2.03;;
25057;SDS011;13057;50.978;11.034;2022-07-29T09:01:06;10.77;;;2.28;;
25057;SDS011;13057;50.978;11.034;2022-07-29T09:03:32;6.38;;;1.90;;
25057;SDS011;13057;50.978;11.034;2022-07-29T09:06:01;3.78;;;1.80;;
25057;SDS011;13057;50.978;11.034;2022-07-29T09:08:28;4.82;;;2.13;;
25057;SDS011;13057;50.978;11.034;2022-07-29T09:10:55;4.57;;;1.90;;
25057;SDS011;13057;50.978;11.034;2022-07-29T09:13:22;5.60;;;1.77;;
25057;SDS011;13057;50.978;11.034;2022-07-29T09:15:48;6.90;;;2.00;;
25057;SDS011;13057;50.978;11.034;2022-07-29T09:18:32;4.43;;;1.80;;
25057;SDS011;13057;50.978;11.034;2022-07-29T09:21:00;4.75;;;1.90;;
25057;SDS011;13057;50.978;11.034;2022-07-29T09:23:39;5.70;;;1.90;;
25057;SDS011;13057;50.978;11.034;2022-07-29T09:26:06;4.30;;;1.77;;
25057;SDS011;13057;50.978;11.034;2022-07-29T09:28:32;2.78;;;1.70;;
25057;SDS011;13057;50.978;11.034;2022-07-29T09:30:58;9.05;;;2.22;;
25057;SDS011;13057;50.978;11.034;2022-07-29T09:33:30;6.35;;;2.13;;
25057;SDS011;13057;50.978;11.034;2022-07-29T09:36:03;7.95;;;2.28;;
25057;SDS011;13057;50.978;11.034;2022-07-29T09:38:31;12.13;;;2.60;;
25057;SDS011;13057;50.978;11.034;2022-07-29T09:40:58;7.80;;;2.65;;
25057;SDS011;13057;50.978;11.034;2022-07-29T09:43:31;10.45;;;2.50;;
25057;SDS011;13057;50.978;11.034;2022-07-29T09:46:09;4.93;;;2.10;;
25057;SDS011;13057;50.978;11.034;2022-07-29T09:48:36;8.95;;;2.40;;
25057;SDS011;13057;50.978;11.034;2022-07-29T09:51:02;5.47;;;2.67;;
25057;SDS011;13057;50.978;11.034;2022-07-29T09:53:32;4.95;;;2.45;;
25057;SDS011;13057;50.978;11.034;2022-07-29T09:56:04;7.72;;;2.30;;
25057;SDS011;13057;50.978;11.034;2022-07-29T09:58:30;7.35;;;2.28;;
25057;SDS011;13057;50.978;11.034;2022-07-29T10:00:58;3.65;;;2.00;;
25057;SDS011;13057;50.978;11.034;2022-07-29T10:03:24;8.45;;;2.50;;
25057;SDS011;13057;50.978;11.034;2022-07-29T10:08:29;8.75;;;2.80;;
25057;SDS011;13057;50.978;11.034;2022-07-29T10:11:08;3.88;;;2.20;;
25057;SDS011;13057;50.978;11.034;2022-07-29T10:13:37;6.03;;;2.35;;
25057;SDS011;13057;50.978;11.034;2022-07-29T10:16:04;9.45;;;1.80;;
25057;SDS011;13057;50.978;11.034;2022-07-29T10:18:30;7.40;;;2.40;;
25057;SDS011;13057;50.978;11.034;2022-07-29T10:20:57;3.05;;;1.80;;
25057;SDS011;13057;50.978;11.034;2022-07-29T10:23:26;2.92;;;2.05;;
25057;SDS011;13057;50.978;11.034;2022-07-29T10:25:54;4.10;;;2.30;;
25057;SDS011;13057;50.978;11.034;2022-07-29T10:28:22;4.85;;;1.90;;
25057;SDS011;13057;50.978;11.034;2022-07-29T10:30:50;6.00;;;1.98;;
25057;SDS011;13057;50.978;11.034;2022-07-29T10:33:21;7.03;;;1.92;;
25057;SDS011;13057;50.978;11.034;2022-07-29T10:36:24;3.28;;;1.88;;
25057;SDS011;13057;50.978;11.034;2022-07-29T10:39:10;6.27;;;2.23;;
25057;SDS011;13057;50.978;11.034;2022-07-29T10:41:51;6.00;;;1.83;;
25057;SDS011;13057;50.978;11.034;2022-07-29T10:44:31;9.63;;;1.98;;
25057;SDS011;13057;50.978;11.034;2022-07-29T10:46:58;4.82;;;2.10;;
25057;SDS011;13057;50.978;11.034;2022-07-29T10:49:24;5.38;;;2.03;;
25057;SDS011;13057;50.978;11.034;2022-07-29T10:51:54;3.95;;;2.08;;
25057;SDS011;13057;50.978;11.034;2022-07-29T10:57:13;4.88;;;2.08;;
25057;SDS011;13057;50.978;11.034;2022-07-29T10:59:44;5.03;;;1.90;;
25057;SDS011;13057;50.978;11.034;2022-07-29T11:05:10;5.57;;;2.25;;
25057;SDS011;13057;50.978;11.034;2022-07-29T11:07:38;3.17;;;1.88;;
25057;SDS011;13057;50.978;11.034;2022-07-29T11:10:24;4.30;;;2.08;;
25057;SDS011;13057;50.978;11.034;2022-07-29T11:12:51;3.97;;;2.20;;
25057;SDS011;13057;50.978;11.034;2022-07-29T11:15:18;3.55;;;1.90;;
25057;SDS011;13057;50.978;11.034;2022-07-29T11:20:35;6.00;;;1.85;;
25057;SDS011;13057;50.978;11.034;2022-07-29T11:28:53;7.07;;;2.13;;
25057;SDS011;13057;50.978;11.034;2022-07-29T11:31:36;4.07;;;1.70;;
25057;SDS011;13057;50.978;11.034;2022-07-29T11:34:15;4.00;;;1.83;;
25057;SDS011;13057;50.978;11.034;2022-07-29T11:39:43;4.00;;;2.47;;
25057;SDS011;13057;50.978;11.034;2022-07-29T11:45:11;2.53;;;1.80;;
25057;SDS011;13057;50.978;11.034;2022-07-29T11:47:49;4.13;;;2.10;;
25057;SDS011;13057;50.978;11.034;2022-07-29T11:50:26;4.78;;;2.05;;
25057;SDS011;13057;50.978;11.034;2022-07-29T11:53:01;4.10;;;2.20;;
25057;SDS011;13057;50.978;11.034;2022-07-29T11:55:34;5.13;;;2.15;;
25057;SDS011;13057;50.978;11.034;2022-07-29T11:58:03;7.68;;;2.30;;
25057;SDS011;13057;50.978;11.034;2022-07-29T12:00:30;9.10;;;2.20;;
25057;SDS011;13057;50.978;11.034;2022-07-29T12:03:01;9.02;;;2.15;;
25057;SDS011;13057;50.978;11.034;2022-07-29T12:05:36;3.63;;;1.92;;
25057;SDS011;13057;50.978;11.034;2022-07-29T12:08:06;5.47;;;2.20;;
25057;SDS011;13057;50.978;11.034;2022-07-29T12:10:35;8.75;;;2.50;;
25057;SDS011;13057;50.978;11.034;2022-07-29T12:13:01;4.10;;;2.30;;
25057;SDS011;13057;50.978;11.034;2022-07-29T12:15:28;4.65;;;2.33;;
25057;SDS011;13057;50.978;11.034;2022-07-29T12:17:54;8.38;;;2.08;;
25057;SDS011;13057;50.978;11.034;2022-07-29T12:20:24;4.13;;;2.30;;
25057;SDS011;13057;50.978;11.034;2022-07-29T12:22:51;7.90;;;2.40;;
25057;SDS011;13057;50.978;11.034;2022-07-29T12:25:19;7.03;;;2.47;;
25057;SDS011;13057;50.978;11.034;2022-07-29T12:27:57;8.02;;;2.50;;
25057;SDS011;13057;50.978;11.034;2022-07-29T12:30:33;6.53;;;2.30;;
25057;SDS011;13057;50.978;11.034;2022-07-29T12:33:10;6.50;;;2.35;;
25057;SDS011;13057;50.978;11.034;2022-07-29T12:35:49;6.75;;;2.38;;
25057;SDS011;13057;50.978;11.034;2022-07-29T12:38:20;5.00;;;2.67;;
25057;SDS011;13057;50.978;11.034;2022-07-29T12:40:47;4.53;;;2.50;;
25057;SDS011;13057;50.978;11.034;2022-07-29T12:43:15;9.02;;;2.83;;
25057;SDS011;13057;50.978;11.034;2022-07-29T12:45:44;7.35;;;2.58;;
25057;SDS011;13057;50.978;11.034;2022-07-29T12:48:13;6.32;;;2.67;;
25057;SDS011;13057;50.978;11.034;2022-07-29T12:53:18;4.82;;;2.83;;
25057;SDS011;13057;50.978;11.034;2022-07-29T12:55:46;8.20;;;2.70;;
25057;SDS011;13057;50.978;11.034;2022-07-29T12:58:27;5.90;;;2.40;;
25057;SDS011;13057;50.978;11.034;2022-07-29T13:01:02;3.88;;;2.47;;
25057;SDS011;13057;50.978;11.034;2022-07-29T13:09:09;7.38;;;2.30;;
25057;SDS011;13057;50.978;11.034;2022-07-29T13:11:40;4.18;;;2.20;;
25057;SDS011;13057;50.978;11.034;2022-07-29T13:14:09;6.85;;;2.47;;
25057;SDS011;13057;50.978;11.034;2022-07-29T13:16:38;10.88;;;2.92;;
25057;SDS011;13057;50.978;11.034;2022-07-29T13:19:35;4.22;;;2.42;;
25057;SDS011;13057;50.978;11.034;2022-07-29T13:22:06;4.32;;;2.47;;
25057;SDS011;13057;50.978;11.034;2022-07-29T13:24:47;4.82;;;2.70;;
25057;SDS011;13057;50.978;11.034;2022-07-29T13:27:21;5.00;;;2.70;;
25057;SDS011;13057;50.978;11.034;2022-07-29T13:29:48;8.43;;;3.00;;
25057;SDS011;13057;50.978;11.034;2022-07-29T13:32:17;4.65;;;2.92;;
25057;SDS011;13057;50.978;11.034;2022-07-29T13:34:43;4.80;;;2.40;;
25057;SDS011;13057;50.978;11.034;2022-07-29T13:37:09;9.20;;;2.40;;
25057;SDS011;13057;50.978;11.034;2022-07-29T13:39:35;5.90;;;2.50;;
25057;SDS011;13057;50.978;11.034;2022-07-29T13:42:02;7.78;;;2.95;;
25057;SDS011;13057;50.978;11.034;2022-07-29T13:44:30;7.30;;;2.80;;
25057;SDS011;13057;50.978;11.034;2022-07-29T13:46:56;6.93;;;2.80;;
25057;SDS011;13057;50.978;11.034;2022-07-29T13:49:23;7.10;;;2.85;;
25057;SDS011;13057;50.978;11.034;2022-07-29T13:51:49;7.40;;;2.72;;
25057;SDS011;13057;50.978;11.034;2022-07-29T13:54:15;5.57;;;3.00;;
25057;SDS011;13057;50.978;11.034;2022-07-29T13:56:41;7.07;;;2.80;;
25057;SDS011;13057;50.978;11.034;2022-07-29T13:59:07;4.75;;;2.72;;
25057;SDS011;13057;50.978;11.034;2022-07-29T14:01:34;6.22;;;2.75;;
25057;SDS011;13057;50.978;11.034;2022-07-29T14:04:00;9.48;;;2.88;;
25057;SDS011;13057;50.978;11.034;2022-07-29T14:06:26;7.43;;;2.80;;
25057;SDS011;13057;50.978;11.034;2022-07-29T14:08:53;13.52;;;2.55;;
25057;SDS011;13057;50.978;11.034;2022-07-29T14:11:19;4.90;;;2.60;;
25057;SDS011;13057;50.978;11.034;2022-07-29T14:13:45;3.75;;;2.63;;
25057;SDS011;13057;50.978;11.034;2022-07-29T14:16:11;6.15;;;2.67;;
25057;SDS011;13057;50.978;11.034;2022-07-29T14:18:39;6.85;;;2.70;;
25057;SDS011;13057;50.978;11.034;2022-07-29T14:21:06;3.30;;;2.40;;
25057;SDS011;13057;50.978;11.034;2022-07-29T14:23:31;4.47;;;2.85;;
25057;SDS011;13057;50.978;11.034;2022-07-29T14:25:58;10.55;;;3.72;;
25057;SDS011;13057;50.978;11.034;2022-07-29T14:28:23;6.07;;;3.30;;
25057;SDS011;13057;50.978;11.034;2022-07-29T14:30:49;7.18;;;3.20;;
25057;SDS011;13057;50.978;11.034;2022-07-29T14:33:15;10.15;;;3.08;;
25057;SDS011;13057;50.978;11.034;2022-07-29T14:35:41;6.35;;;2.58;;
25057;SDS011;13057;50.978;11.034;2022-07-29T14:38:07;6.10;;;2.83;;
25057;SDS011;13057;50.978;11.034;2022-07-29T14:40:33;8.50;;;2.97;;
25057;SDS011;13057;50.978;11.034;2022-07-29T14:42:59;6.20;;;2.60;;
25057;SDS011;13057;50.978;11.034;2022-07-29T14:45:26;5.25;;;2.97;;
25057;SDS011;13057;50.978;11.034;2022-07-29T14:47:53;13.05;;;2.70;;
25057;SDS011;13057;50.978;11.034;2022-07-29T14:50:19;4.15;;;2.50;;
25057;SDS011;13057;50.978;11.034;2022-07-29T14:52:45;5.97;;;2.83;;
25057;SDS011;13057;50.978;11.034;2022-07-29T14:55:11;4.28;;;2.90;;
25057;SDS011;13057;50.978;11.034;2022-07-29T14:57:37;7.70;;;3.10;;
25057;SDS011;13057;50.978;11.034;2022-07-29T15:00:04;9.45;;;3.40;;
25057;SDS011;13057;50.978;11.034;2022-07-29T15:02:32;8.65;;;4.22;;
25057;SDS011;13057;50.978;11.034;2022-07-29T15:04:58;3.85;;;2.72;;
25057;SDS011;13057;50.978;11.034;2022-07-29T15:07:24;5.28;;;2.65;;
25057;SDS011;13057;50.978;11.034;2022-07-29T15:09:50;3.58;;;2.50;;
25057;SDS011;13057;50.978;11.034;2022-07-29T15:12:16;5.72;;;2.83;;
25057;SDS011;13057;50.978;11.034;2022-07-29T15:14:41;6.68;;;3.22;;
25057;SDS011;13057;50.978;11.034;2022-07-29T15:17:07;5.75;;;3.25;;
25057;SDS011;13057;50.978;11.034;2022-07-29T15:19:33;5.43;;;2.88;;
25057;SDS011;13057;50.978;11.034;2022-07-29T15:21:59;7.57;;;3.03;;
25057;SDS011;13057;50.978;11.034;2022-07-29T15:24:28;7.03;;;3.10;;
25057;SDS011;13057;50.978;11.034;2022-07-29T15:26:54;5.90;;;3.10;;